Time;durP1;ratioP1;P1;durP2;ratioP2;P2;SDS_P1;SDS_P2;PMS_P1;PMS_P2;Temp;Humidity;BMP_temperature;BMP_pressure;BME280_temperature;BME280_humidity;BME280_pressure;Samples;Min_cycle;Max_cycle;Signal;HPM_P1;HPM_P2
2023/12/01 00:01:03;;;;;;;31.27;13.25;;;0.70;99.90;;;;;;4877671;29;20105;-77
2023/12/01 00:03:38;;;;;;;57.83;40.83;;;0.70;99.90;;;;;;4879015;29;20081;-77
2023/12/01 00:06:04;;;;;;;31.83;12.75;;;0.70;99.90;;;;;;4879061;29;20041;-77
2023/12/01 00:08:30;;;;;;;33.42;13.15;;;0.70;99.90;;;;;;4853952;29;20037;-77
2023/12/01 00:10:57;;;;;;;60.65;41.50;;;0.70;99.90;;;;;;4854964;29;20044;-77
2023/12/01 00:13:25;;;;;;;24.77;10.65;;;0.70;99.90;;;;;;4877383;29;20045;-77
2023/12/01 00:15:51;;;;;;;30.23;11.20;;;0.70;99.90;;;;;;4860199;29;20052;-77
2023/12/01 00:18:20;;;;;;;30.80;12.13;;;0.70;99.90;;;;;;4845462;29;20049;-77
2023/12/01 00:20:46;;;;;;;34.17;13.82;;;0.70;99.90;;;;;;4862215;29;20105;-77
2023/12/01 00:23:14;;;;;;;34.42;13.45;;;0.70;99.90;;;;;;4875622;29;20132;-77
2023/12/01 00:25:49;;;;;;;60.95;41.15;;;0.70;99.90;;;;;;4859996;29;20113;-76
2023/12/01 00:28:24;;;;;;;74.45;45.35;;;0.60;99.90;;;;;;4845093;29;20132;-77
2023/12/01 00:30:53;;;;;;;63.70;41.60;;;0.70;99.90;;;;;;4845423;29;20114;-77
2023/12/01 00:33:25;;;;;;;68.22;42.80;;;0.70;99.90;;;;;;4849341;29;20053;-77
2023/12/01 00:36:20;;;;;;;28.33;14.05;;;0.70;99.90;;;;;;4861128;29;20060;-78
2023/12/01 00:38:52;;;;;;;35.75;13.48;;;0.70;99.90;;;;;;4852073;29;20061;-78
2023/12/01 00:41:35;;;;;;;39.00;14.90;;;0.70;99.90;;;;;;4874515;29;20408;-78
2023/12/01 00:44:26;;;;;;;62.30;40.70;;;0.70;99.90;;;;;;4888523;29;20045;-78
2023/12/01 00:47:22;;;;;;;68.93;43.17;;;0.70;99.90;;;;;;4902135;29;20044;-78
2023/12/01 00:49:56;;;;;;;67.68;41.95;;;0.70;99.90;;;;;;4886635;29;20081;-78
2023/12/01 00:52:24;;;;;;;64.70;42.95;;;0.70;99.90;;;;;;4860039;29;20040;-78
2023/12/01 00:54:54;;;;;;;30.67;12.85;;;0.70;99.90;;;;;;4870923;29;20108;-78
2023/12/01 00:57:26;;;;;;;35.20;15.70;;;0.70;99.90;;;;;;4886174;29;20483;-78
2023/12/01 01:00:14;;;;;;;71.22;43.38;;;0.70;99.90;;;;;;4880534;29;20048;-78
2023/12/01 01:02:59;;;;;;;34.47;13.90;;;0.60;99.90;;;;;;4852504;29;20148;-78
2023/12/01 01:05:26;;;;;;;69.95;42.60;;;0.60;99.90;;;;;;4872721;29;20092;-78
2023/12/01 01:07:55;;;;;;;34.33;12.95;;;0.60;99.90;;;;;;4832211;29;20104;-78
2023/12/01 01:10:31;;;;;;;30.98;11.70;;;0.70;99.90;;;;;;4880398;29;20045;-78
2023/12/01 01:13:03;;;;;;;30.77;13.18;;;0.60;99.90;;;;;;4867472;29;20036;-78
2023/12/01 01:16:15;;;;;;;63.58;40.88;;;0.60;99.90;;;;;;4897887;29;20107;-78
2023/12/01 01:18:49;;;;;;;69.70;41.58;;;0.60;99.90;;;;;;4867714;29;20519;-78
2023/12/01 01:21:42;;;;;;;32.70;11.02;;;0.60;99.90;;;;;;4874731;29;20045;-78
2023/12/01 01:24:49;;;;;;;69.07;40.30;;;0.60;99.90;;;;;;4890113;29;20114;-77
2023/12/01 01:27:53;;;;;;;36.90;13.32;;;0.60;99.90;;;;;;4912158;29;20056;-78
2023/12/01 01:30:50;;;;;;;32.42;12.35;;;0.70;99.90;;;;;;4866091;29;20056;-78
2023/12/01 01:34:08;;;;;;;60.60;37.92;;;0.60;99.90;;;;;;4890102;29;20068;-78
2023/12/01 01:36:46;;;;;;;24.13;11.60;;;0.50;99.90;;;;;;4883456;29;20131;-78
2023/12/01 01:39:26;;;;;;;55.63;35.28;;;0.50;99.90;;;;;;4884654;29;20175;-79
2023/12/01 01:42:12;;;;;;;26.15;10.82;;;0.50;99.90;;;;;;4837772;29;20056;-78
2023/12/01 01:45:13;;;;;;;26.92;11.63;;;0.50;99.90;;;;;;4891541;29;20049;-78
2023/12/01 01:48:17;;;;;;;30.88;12.88;;;0.50;99.90;;;;;;4875976;29;20041;-78
2023/12/01 01:51:03;;;;;;;58.70;37.45;;;0.50;99.90;;;;;;4861187;29;20127;-78
2023/12/01 01:53:56;;;;;;;26.90;10.23;;;0.60;99.90;;;;;;4853410;29;20392;-78
2023/12/01 01:57:12;;;;;;;29.10;11.30;;;0.60;99.90;;;;;;4877211;29;20052;-78
2023/12/01 02:00:10;;;;;;;59.15;37.72;;;0.50;99.90;;;;;;4879129;29;20423;-78
2023/12/01 02:03:02;;;;;;;62.33;37.50;;;0.50;99.90;;;;;;4886928;29;20122;-78
2023/12/01 02:06:06;;;;;;;25.40;11.40;;;0.50;99.90;;;;;;4894770;29;20474;-78
2023/12/01 02:09:08;;;;;;;23.52;10.65;;;0.50;99.90;;;;;;4900085;29;20055;-78
2023/12/01 02:12:32;;;;;;;29.38;10.77;;;0.40;99.90;;;;;;4889207;29;20077;-78
2023/12/01 02:15:59;;;;;;;28.50;12.68;;;0.50;99.90;;;;;;4895297;29;20055;-78
2023/12/01 02:18:39;;;;;;;59.90;37.15;;;0.40;99.90;;;;;;4883591;29;20043;-78
2023/12/01 02:22:02;;;;;;;32.67;11.57;;;0.50;99.90;;;;;;4890937;29;20045;-78
2023/12/01 02:24:38;;;;;;;35.78;12.13;;;0.50;99.90;;;;;;4882912;29;20046;-78
2023/12/01 02:27:17;;;;;;;26.73;9.45;;;0.50;99.90;;;;;;4858404;29;20053;-78
2023/12/01 02:30:12;;;;;;;64.57;40.03;;;0.40;99.90;;;;;;4861953;29;20544;-78
2023/12/01 02:33:09;;;;;;;26.55;11.52;;;0.40;99.90;;;;;;4884904;29;20041;-78
2023/12/01 02:35:58;;;;;;;29.58;12.25;;;0.40;99.90;;;;;;4896842;29;20563;-78
2023/12/01 02:38:59;;;;;;;54.88;34.95;;;0.40;99.90;;;;;;4899305;29;20047;-78
2023/12/01 02:41:41;;;;;;;27.58;10.55;;;0.20;99.90;;;;;;4880078;29;20087;-78
2023/12/01 02:44:27;;;;;;;18.52;6.88;;;0.30;99.90;;;;;;4882116;29;20116;-78
2023/12/01 02:47:02;;;;;;;35.30;12.55;;;0.20;99.90;;;;;;4877024;29;20136;-78
2023/12/01 02:49:44;;;;;;;18.52;8.77;;;0.20;99.90;;;;;;4855902;29;20122;-78
2023/12/01 02:52:47;;;;;;;51.35;33.92;;;0.00;99.90;;;;;;4882173;29;20048;-78
2023/12/01 02:59:16;;;;;;;22.25;9.40;;;0.10;99.90;;;;;;4853966;29;20050;-78
2023/12/01 03:01:53;;;;;;;16.13;7.80;;;0.00;99.90;;;;;;4872946;29;20508;-78
2023/12/01 03:04:30;;;;;;;26.67;10.07;;;0.10;99.90;;;;;;4880651;29;20269;-78
2023/12/01 03:06:57;;;;;;;21.05;9.45;;;0.00;99.90;;;;;;4848364;29;20045;-78
2023/12/01 03:09:33;;;;;;;24.30;10.65;;;0.00;99.90;;;;;;4883193;29;20101;-78
2023/12/01 03:12:14;;;;;;;50.10;32.25;;;-0.10;99.90;;;;;;4853643;29;20032;-78
2023/12/01 03:15:10;;;;;;;22.00;10.65;;;0.10;99.90;;;;;;4866228;29;20116;-78
2023/12/01 03:17:57;;;;;;;25.50;10.30;;;-0.10;99.90;;;;;;4852184;29;20033;-78
2023/12/01 03:21:55;;;;;;;;;;;;;;;;;;;;;
2023/12/01 03:25:55;;;;;;;18.10;9.05;;;-0.10;99.90;;;;;;4846046;29;20553;-78
2023/12/01 03:28:57;;;;;;;;;;;;;;;;;;;;;
2023/12/01 03:32:28;;;;;;;19.25;7.68;;;-0.20;99.90;;;;;;4774414;29;20062;-79
2023/12/01 03:35:18;;;;;;;19.88;8.45;;;-0.20;99.90;;;;;;4767463;30;20090;-79
2023/12/01 03:38:43;;;;;;;;;;;;;;;;;;;;;
2023/12/01 03:41:42;;;;;;;21.77;9.13;;;-0.20;99.90;;;;;;4849310;29;20041;-78
2023/12/01 03:44:47;;;;;;;21.08;9.73;;;-0.30;99.90;;;;;;4888883;29;20060;-78
2023/12/01 03:47:28;;;;;;;23.30;9.60;;;-0.30;99.90;;;;;;4851527;29;20093;-78
2023/12/01 03:50:23;;;;;;;17.35;9.63;;;-0.30;99.90;;;;;;4870077;29;20500;-78
2023/12/01 03:53:14;;;;;;;18.88;7.55;;;-0.30;99.90;;;;;;4889800;29;20047;-78
2023/12/01 03:56:09;;;;;;;18.02;7.38;;;-0.40;99.90;;;;;;4870095;29;20045;-78
2023/12/01 03:59:36;;;;;;;18.65;7.80;;;-0.50;99.90;;;;;;4870259;29;20108;-78
2023/12/01 04:02:21;;;;;;;18.65;9.00;;;-0.50;99.90;;;;;;4859797;29;20057;-78
2023/12/01 04:05:01;;;;;;;15.57;6.72;;;-0.50;99.90;;;;;;4898563;29;20044;-78
2023/12/01 04:08:00;;;;;;;38.33;27.45;;;-0.50;99.90;;;;;;4899601;29;20036;-78
2023/12/01 04:10:56;;;;;;;;;;;;;;;;;;;;;
2023/12/01 04:13:53;;;;;;;22.73;9.60;;;-0.60;99.90;;;;;;4841769;29;20083;-78
2023/12/01 04:16:26;;;;;;;;;;;-0.60;99.90;;;;;;4858982;29;20125;-78
2023/12/01 04:19:04;;;;;;;12.43;7.38;;;-0.60;99.90;;;;;;4847604;29;19920;-78
2023/12/01 04:21:46;;;;;;;26.45;9.00;;;-0.60;99.90;;;;;;4855180;29;20045;-78
2023/12/01 04:24:24;;;;;;;11.98;6.82;;;-0.60;99.90;;;;;;4851701;29;20057;-78
2023/12/01 04:27:18;;;;;;;16.85;7.70;;;-0.60;99.90;;;;;;4863138;29;20053;-78
2023/12/01 04:30:31;;;;;;;20.35;8.77;;;-0.60;99.90;;;;;;4860883;29;20097;-78
2023/12/01 04:33:08;;;;;;;13.85;5.72;;;-0.60;99.90;;;;;;4855884;29;20097;-78
2023/12/01 04:35:55;;;;;;;9.68;6.18;;;-0.70;99.90;;;;;;4880364;29;20048;-78
2023/12/01 04:38:53;;;;;;;14.00;6.88;;;-0.70;99.90;;;;;;4875224;29;20049;-78
2023/12/01 04:41:36;;;;;;;9.75;4.72;;;-0.80;99.90;;;;;;4866767;29;20038;-78
2023/12/01 04:44:12;;;;;;;13.77;8.90;;;-0.90;99.90;;;;;;4874097;29;20055;-78
2023/12/01 04:46:45;;;;;;;32.15;26.75;;;-0.90;99.90;;;;;;4884631;29;20040;-77
2023/12/01 04:49:34;;;;;;;15.20;7.45;;;-0.90;99.90;;;;;;4875397;29;20483;-77
2023/12/01 04:53:00;;;;;;;20.98;9.80;;;-0.90;99.90;;;;;;4782184;29;20087;-77
2023/12/01 04:56:06;;;;;;;38.03;30.23;;;-0.90;99.90;;;;;;4804011;29;20106;-77
2023/12/01 04:59:02;;;;;;;18.63;7.78;;;-0.90;99.90;;;;;;4840416;29;20104;-77
2023/12/01 05:01:35;;;;;;;14.68;7.93;;;-0.90;99.90;;;;;;4869961;29;20044;-77
2023/12/01 05:05:05;;;;;;;17.70;7.80;;;-0.90;99.90;;;;;;4885814;29;20052;-77
2023/12/01 05:08:02;;;;;;;13.60;6.85;;;-0.90;99.90;;;;;;4825730;29;20061;-77
2023/12/01 05:11:12;;;;;;;11.48;5.57;;;-1.00;99.90;;;;;;4819485;29;20049;-77
2023/12/01 05:14:43;;;;;;;18.05;7.45;;;-1.00;99.90;;;;;;4891240;29;20051;-77
2023/12/01 05:17:21;;;;;;;18.00;8.50;;;-1.00;99.90;;;;;;4886166;29;20515;-77
2023/12/01 05:19:51;;;;;;;20.75;7.95;;;-1.10;99.90;;;;;;4875838;29;20093;-77
2023/12/01 05:22:24;;;;;;;39.20;31.02;;;-1.10;99.90;;;;;;4875688;29;20166;-77
2023/12/01 05:25:04;;;;;;;;;;;;;;;;;;;;;
2023/12/01 05:27:46;;;;;;;10.25;5.93;;;-1.10;99.90;;;;;;4884842;29;20053;-77
2023/12/01 05:30:47;;;;;;;23.08;10.60;;;-1.10;99.90;;;;;;4873191;29;20405;-77
2023/12/01 05:33:41;;;;;;;;;;;;;;;;;;;;;
2023/12/01 05:36:35;;;;;;;16.10;7.72;;;-1.10;99.90;;;;;;4873457;29;20052;-76
2023/12/01 05:39:40;;;;;;;18.95;8.55;;;-1.10;99.90;;;;;;4888966;29;20064;-76
2023/12/01 05:42:36;;;;;;;12.00;6.43;;;-1.10;99.90;;;;;;4898798;29;20076;-76
2023/12/01 05:45:36;;;;;;;15.32;7.97;;;-1.20;99.90;;;;;;4899942;29;20056;-77
2023/12/01 05:48:41;;;;;;;22.88;9.18;;;-1.20;99.90;;;;;;4859788;29;20121;-76
2023/12/01 05:51:47;;;;;;;20.20;8.57;;;-1.30;99.90;;;;;;4817011;29;20115;-76
2023/12/01 05:54:27;;;;;;;21.25;9.30;;;-1.40;99.90;;;;;;4812689;29;20049;-76
2023/12/01 05:57:48;;;;;;;14.40;7.50;;;-1.40;99.90;;;;;;4878637;29;20154;-76
2023/12/01 06:01:00;;;;;;;13.18;8.07;;;-1.50;99.90;;;;;;4861568;29;20064;-76
2023/12/01 06:04:37;;;;;;;18.13;8.25;;;-1.60;99.90;;;;;;4869777;29;20053;-76
2023/12/01 06:07:21;;;;;;;14.07;6.50;;;-1.60;99.90;;;;;;4888138;29;20049;-76
2023/12/01 06:09:55;;;;;;;13.05;5.85;;;-1.70;99.90;;;;;;4857749;29;20516;-76
2023/12/01 06:12:43;;;;;;;18.83;5.95;;;-1.70;99.90;;;;;;4887914;29;20043;-76
2023/12/01 06:15:24;;;;;;;16.42;6.82;;;-1.80;99.90;;;;;;4887451;29;20081;-76
2023/12/01 06:17:58;;;;;;;15.32;6.90;;;-1.80;99.90;;;;;;4882786;29;20045;-76
2023/12/01 06:20:30;;;;;;;20.05;9.18;;;-1.90;99.90;;;;;;4870311;29;20046;-76
2023/12/01 06:23:21;;;;;;;17.95;8.10;;;-1.90;99.90;;;;;;4860251;29;20059;-76
2023/12/01 06:25:48;;;;;;;19.33;10.27;;;-2.00;99.90;;;;;;4851344;29;20053;-75
2023/12/01 06:28:37;;;;;;;18.67;7.50;;;-2.10;99.90;;;;;;4877740;29;20041;-75
2023/12/01 06:31:05;;;;;;;14.50;6.45;;;-2.10;99.90;;;;;;4885282;29;20049;-75
2023/12/01 06:33:45;;;;;;;21.17;10.30;;;-2.10;99.90;;;;;;4893793;29;20099;-75
2023/12/01 06:36:11;;;;;;;24.23;9.65;;;-2.20;99.90;;;;;;4895415;29;20153;-75
2023/12/01 06:38:37;;;;;;;21.98;9.65;;;-2.20;99.90;;;;;;4862393;29;20143;-76
2023/12/01 06:41:03;;;;;;;16.35;7.63;;;-2.30;99.90;;;;;;4861028;29;20053;-75
2023/12/01 06:43:30;;;;;;;15.40;7.65;;;-2.30;99.90;;;;;;4850574;29;20037;-76
2023/12/01 06:45:56;;;;;;;21.23;9.20;;;-2.40;99.90;;;;;;4864006;29;20082;-76
2023/12/01 06:48:22;;;;;;;22.35;8.43;;;-2.40;99.90;;;;;;4847477;29;20049;-76
2023/12/01 06:50:47;;;;;;;23.48;8.68;;;-2.40;99.90;;;;;;4850734;29;20044;-76
2023/12/01 06:53:13;;;;;;;22.70;9.48;;;-2.50;99.90;;;;;;4871548;29;20059;-76
2023/12/01 06:55:40;;;;;;;22.83;8.77;;;-2.50;99.90;;;;;;4864915;29;20049;-76
2023/12/01 06:58:09;;;;;;;22.88;10.43;;;-2.50;99.90;;;;;;4899129;29;20044;-76
2023/12/01 07:00:37;;;;;;;23.58;10.65;;;-2.60;99.90;;;;;;4864798;29;20453;-76
2023/12/01 07:03:05;;;;;;;47.22;34.38;;;-2.60;99.90;;;;;;4871654;29;20060;-75
2023/12/01 07:05:33;;;;;;;20.60;11.07;;;-2.60;99.90;;;;;;4871882;29;20124;-75
2023/12/01 07:08:00;;;;;;;17.85;7.45;;;-2.60;99.90;;;;;;4845988;29;20512;-76
2023/12/01 07:10:27;;;;;;;14.23;7.70;;;-2.70;99.90;;;;;;4846864;29;20077;-75
2023/12/01 07:12:54;;;;;;;17.00;9.60;;;-2.70;99.90;;;;;;4845571;29;20513;-75
2023/12/01 07:15:21;;;;;;;28.05;12.95;;;-2.70;99.90;;;;;;4883964;29;20040;-75
2023/12/01 07:17:51;;;;;;;25.17;10.45;;;-2.70;99.90;;;;;;4865369;29;20049;-75
2023/12/01 07:20:21;;;;;;;25.00;12.25;;;-2.70;99.90;;;;;;4848968;29;20529;-75
2023/12/01 07:22:48;;;;;;;24.67;11.07;;;-2.80;99.90;;;;;;4851134;29;20060;-75
2023/12/01 07:25:21;;;;;;;23.77;9.93;;;-2.80;99.90;;;;;;4874614;29;20127;-76
2023/12/01 07:27:52;;;;;;;23.88;10.60;;;-2.80;99.90;;;;;;4869140;29;20044;-76
2023/12/01 07:30:18;;;;;;;22.73;9.93;;;-2.90;99.90;;;;;;4867246;29;20115;-75
2023/12/01 07:32:45;;;;;;;21.23;9.77;;;-2.90;99.90;;;;;;4869723;29;20045;-75
2023/12/01 07:35:12;;;;;;;20.98;8.63;;;-2.90;99.90;;;;;;4874724;29;20395;-75
2023/12/01 07:37:38;;;;;;;22.58;11.57;;;-2.90;99.90;;;;;;4875688;29;20128;-75
2023/12/01 07:40:07;;;;;;;23.67;10.35;;;-3.00;99.90;;;;;;4871123;29;20135;-75
2023/12/01 07:42:33;;;;;;;22.00;9.82;;;-3.00;99.90;;;;;;4856281;29;20049;-75
2023/12/01 07:45:00;;;;;;;29.83;11.38;;;-3.00;99.90;;;;;;4845032;29;20041;-75
2023/12/01 07:47:26;;;;;;;26.92;11.52;;;-3.00;99.90;;;;;;4849854;29;20048;-75
2023/12/01 07:49:51;;;;;;;25.63;10.02;;;-3.00;99.90;;;;;;4871965;29;20040;-75
2023/12/01 07:52:17;;;;;;;23.75;10.75;;;-3.00;99.90;;;;;;4863328;29;20041;-75
2023/12/01 07:54:44;;;;;;;23.48;9.65;;;-3.00;99.90;;;;;;4863485;29;20063;-75
2023/12/01 07:57:10;;;;;;;27.58;9.40;;;-3.10;99.90;;;;;;4852565;29;20117;-75
2023/12/01 07:59:36;;;;;;;25.00;9.45;;;-3.00;99.90;;;;;;4868369;29;20040;-75
2023/12/01 08:02:02;;;;;;;27.50;10.45;;;-3.00;99.90;;;;;;4878882;29;20080;-75
2023/12/01 08:04:28;;;;;;;20.90;9.32;;;-3.00;99.90;;;;;;4872790;29;20452;-75
2023/12/01 08:06:55;;;;;;;25.50;10.05;;;-3.00;99.90;;;;;;4847112;29;20055;-75
2023/12/01 08:09:31;;;;;;;28.63;10.07;;;-3.00;99.90;;;;;;4844875;29;20049;-75
2023/12/01 08:11:58;;;;;;;22.80;10.23;;;-3.00;99.90;;;;;;4887465;29;20048;-76
2023/12/01 08:15:06;;;;;;;;;;;;;;;;;;;;;
2023/12/01 08:20:25;;;;;;;29.50;10.85;;;-2.90;99.90;;;;;;4885877;29;20037;-77
2023/12/01 08:22:50;;;;;;;30.88;11.15;;;-2.90;99.90;;;;;;4862020;29;20408;-76
2023/12/01 08:25:21;;;;;;;30.48;11.90;;;-2.90;99.90;;;;;;4855214;29;20033;-77
2023/12/01 08:27:53;;;;;;;22.75;8.95;;;-2.80;99.90;;;;;;4844906;29;20057;-77
2023/12/01 08:30:22;;;;;;;;;;;-2.80;99.90;;;;;;4862569;29;20096;-77
2023/12/01 08:32:53;;;;;;;23.30;9.07;;;-2.80;99.90;;;;;;4890678;29;19919;-77
2023/12/01 08:35:24;;;;;;;31.02;12.80;;;-2.80;99.90;;;;;;4887452;29;20048;-77
2023/12/01 08:38:00;;;;;;;22.55;11.40;;;-2.80;99.90;;;;;;4863407;29;20045;-77
2023/12/01 08:40:28;;;;;;;26.25;12.50;;;-2.80;99.90;;;;;;4862887;29;20087;-77
2023/12/01 08:42:57;;;;;;;14.38;6.70;;;-2.70;99.90;;;;;;4872931;29;20067;-77
2023/12/01 08:45:23;;;;;;;28.77;11.77;;;-2.70;99.90;;;;;;4859849;29;20041;-78
2023/12/01 08:47:51;;;;;;;18.70;7.63;;;-2.70;99.90;;;;;;4846830;29;20485;-78
2023/12/01 08:50:34;;;;;;;24.05;8.75;;;-2.70;99.90;;;;;;4866385;29;20033;-79
2023/12/01 08:53:07;;;;;;;26.52;10.30;;;-2.70;99.90;;;;;;4858523;29;20041;-78
2023/12/01 08:56:26;;;;;;;25.23;9.70;;;-2.70;99.90;;;;;;4856855;29;20072;-79
2023/12/01 08:58:58;;;;;;;30.60;10.18;;;-2.70;99.90;;;;;;4835566;29;20290;-79
2023/12/01 09:01:25;;;;;;;24.83;9.65;;;-2.70;99.90;;;;;;4844618;29;20338;-78
2023/12/01 09:04:02;;;;;;;26.23;9.52;;;-2.70;99.90;;;;;;4844169;29;20202;-78
2023/12/01 09:06:38;;;;;;;30.67;11.70;;;-2.70;99.90;;;;;;4844327;29;20045;-78
2023/12/01 09:09:12;;;;;;;34.17;13.15;;;-2.70;99.90;;;;;;4859541;29;20037;-78
2023/12/01 09:11:50;;;;;;;27.92;11.95;;;-2.50;99.90;;;;;;4878715;29;20102;-80
2023/12/01 09:14:18;;;;;;;21.17;8.75;;;-2.70;99.90;;;;;;4860264;29;20127;-77
2023/12/01 09:16:45;;;;;;;27.48;10.48;;;-2.60;99.90;;;;;;4867336;29;20136;-79
2023/12/01 09:19:18;;;;;;;20.13;9.73;;;-2.50;99.90;;;;;;4878497;29;20044;-79
2023/12/01 09:21:49;;;;;;;30.73;12.63;;;-2.50;99.90;;;;;;4862906;29;20048;-79
2023/12/01 09:24:32;;;;;;;27.83;9.52;;;-2.50;99.90;;;;;;4863002;29;20056;-79
2023/12/01 09:27:00;;;;;;;37.25;13.50;;;-2.40;99.90;;;;;;4862721;29;20048;-77
2023/12/01 09:29:28;;;;;;;28.15;12.25;;;-2.40;99.90;;;;;;4877511;29;20523;-78
2023/12/01 09:31:55;;;;;;;16.85;10.98;;;-2.30;99.90;;;;;;4863521;29;20063;-77
2023/12/01 09:34:21;;;;;;;35.05;11.02;;;-2.30;99.90;;;;;;4865933;29;20049;-77
2023/12/01 09:36:48;;;;;;;23.02;8.85;;;-2.30;99.90;;;;;;4861430;29;20140;-76
2023/12/01 09:39:15;;;;;;;27.23;9.82;;;-2.30;99.90;;;;;;4862092;29;20081;-77
2023/12/01 09:41:42;;;;;;;24.70;11.73;;;-2.20;99.90;;;;;;4857666;29;20049;-76
2023/12/01 09:44:09;;;;;;;16.58;8.32;;;-2.10;99.90;;;;;;4842944;29;20394;-76
2023/12/01 09:46:36;;;;;;;27.33;11.25;;;-2.10;99.90;;;;;;4842984;29;20473;-77
2023/12/01 09:49:05;;;;;;;26.73;11.05;;;-2.10;99.90;;;;;;4843028;29;20507;-77
2023/12/01 09:51:34;;;;;;;35.28;13.45;;;-2.00;99.90;;;;;;4843354;29;20041;-77
2023/12/01 09:54:02;;;;;;;32.10;14.15;;;-1.80;99.90;;;;;;4843037;29;20045;-77
2023/12/01 09:56:28;;;;;;;29.70;11.30;;;-1.70;99.90;;;;;;4842786;29;20477;-77
2023/12/01 09:58:56;;;;;;;33.53;12.25;;;-1.70;99.90;;;;;;4849483;29;20085;-77
2023/12/01 10:01:23;;;;;;;18.77;8.02;;;-1.70;99.90;;;;;;4861550;29;20460;-77
2023/12/01 10:03:49;;;;;;;21.38;9.38;;;-1.60;99.90;;;;;;4860886;29;20052;-77
2023/12/01 10:06:16;;;;;;;18.88;7.35;;;-1.60;99.90;;;;;;4861667;29;20037;-77
2023/12/01 10:08:42;;;;;;;16.63;7.63;;;-1.60;99.90;;;;;;4861212;29;20076;-76
2023/12/01 10:11:28;;;;;;;41.63;29.75;;;-1.50;99.90;;;;;;4876857;29;20045;-77
2023/12/01 10:13:54;;;;;;;20.30;8.98;;;-1.50;99.90;;;;;;4869633;29;20136;-76
2023/12/01 10:16:21;;;;;;;15.75;8.82;;;-1.50;99.90;;;;;;4861633;29;20152;-77
2023/12/01 10:19:01;;;;;;;22.95;9.13;;;-1.50;99.90;;;;;;4863294;29;20045;-77
2023/12/01 10:21:51;;;;;;;23.67;9.77;;;-1.40;99.90;;;;;;4861492;29;20045;-77
2023/12/01 10:24:24;;;;;;;20.92;7.55;;;-1.40;99.90;;;;;;4865257;29;20108;-77
2023/12/01 10:26:55;;;;;;;16.35;7.65;;;-1.40;99.90;;;;;;4862998;29;20519;-76
2023/12/01 10:29:35;;;;;;;16.23;7.45;;;-1.30;99.90;;;;;;4860621;29;20100;-76
2023/12/01 10:32:11;;;;;;;17.65;6.70;;;-1.30;99.90;;;;;;4874581;29;20037;-76
2023/12/01 10:34:37;;;;;;;;;;;-1.30;99.90;;;;;;4868036;29;20064;-76
2023/12/01 10:37:03;;;;;;;15.02;8.13;;;-1.20;99.90;;;;;;4864510;29;19930;-76
2023/12/01 10:39:29;;;;;;;13.15;6.38;;;-1.20;99.90;;;;;;4870518;29;20053;-75
2023/12/01 10:41:58;;;;;;;22.83;9.43;;;-1.20;99.90;;;;;;4869906;29;20033;-76
2023/12/01 10:44:26;;;;;;;18.80;8.98;;;-1.20;99.90;;;;;;4870657;29;20044;-76
2023/12/01 10:46:54;;;;;;;28.80;23.13;;;-1.20;99.90;;;;;;4868126;29;20408;-76
2023/12/01 10:49:21;;;;;;;13.05;6.32;;;-1.20;99.90;;;;;;4863747;29;20521;-76
2023/12/01 10:51:54;;;;;;;11.93;5.13;;;-1.10;99.90;;;;;;4859791;29;20092;-77
2023/12/01 10:54:34;;;;;;;19.95;8.55;;;-1.10;99.90;;;;;;4864954;29;20492;-77
2023/12/01 10:57:14;;;;;;;14.45;7.25;;;-1.00;99.90;;;;;;4860426;29;20033;-77
2023/12/01 10:59:52;;;;;;;11.27;6.17;;;-1.00;99.90;;;;;;4860308;29;20508;-77
2023/12/01 11:02:29;;;;;;;15.20;7.03;;;-1.00;99.90;;;;;;4881576;29;20371;-77
2023/12/01 11:04:59;;;;;;;14.93;6.30;;;-0.90;99.90;;;;;;4860383;29;20101;-76
2023/12/01 11:08:03;;;;;;;23.20;20.20;;;-0.90;99.90;;;;;;4866321;29;20037;-76
2023/12/01 11:10:44;;;;;;;12.02;6.18;;;-0.80;99.90;;;;;;4844406;29;20044;-76
2023/12/01 11:13:18;;;;;;;13.80;5.50;;;-0.80;99.90;;;;;;4858408;29;20048;-78
2023/12/01 11:15:53;;;;;;;12.73;5.68;;;-0.80;99.90;;;;;;4861607;29;20085;-77
2023/12/01 11:18:48;;;;;;;14.15;7.32;;;-0.80;99.90;;;;;;4860358;29;20088;-78
2023/12/01 11:21:17;;;;;;;10.05;6.32;;;-0.70;99.90;;;;;;4846250;29;20048;-79
2023/12/01 11:27:49;;;;;;;7.25;5.68;;;-0.60;99.90;;;;;;4861084;29;20045;-77
2023/12/01 11:30:31;;;;;;;16.77;7.43;;;-0.40;99.90;;;;;;4839463;29;20304;-77
2023/12/01 11:33:40;;;;;;;22.30;18.60;;;-0.10;99.90;;;;;;4875790;29;20049;-77
2023/12/01 11:37:21;;;;;;;23.17;20.05;;;0.30;99.90;;;;;;4884027;29;20098;-77
2023/12/01 11:40:26;;;;;;;18.40;7.50;;;0.60;99.90;;;;;;4860995;29;20120;-77
2023/12/01 11:43:48;;;;;;;23.38;20.88;;;1.00;99.90;;;;;;4822520;29;20527;-78
2023/12/01 11:46:56;;;;;;;23.02;19.65;;;1.50;99.90;;;;;;4835146;29;20106;-78
2023/12/01 11:50:26;;;;;;;22.33;19.92;;;1.70;99.90;;;;;;4820794;29;20053;-78
2023/12/01 11:53:40;;;;;;;22.73;20.33;;;2.00;99.90;;;;;;4805136;29;20058;-77
2023/12/01 11:57:31;;;;;;;22.52;20.15;;;2.20;99.90;;;;;;4823353;29;20057;-78
2023/12/01 12:00:41;;;;;;;21.25;19.05;;;2.40;99.90;;;;;;4814571;29;20084;-78
2023/12/01 12:03:38;;;;;;;19.67;17.63;;;2.80;99.90;;;;;;4826344;29;20046;-78
2023/12/01 12:06:23;;;;;;;20.42;18.33;;;3.00;99.90;;;;;;4793804;29;20093;-78
2023/12/01 12:09:26;;;;;;;19.85;17.75;;;3.30;99.90;;;;;;4773067;29;20051;-78
2023/12/01 12:12:45;;;;;;;19.52;17.52;;;3.30;99.90;;;;;;4842084;29;20045;-78
2023/12/01 12:15:58;;;;;;;20.58;18.40;;;3.40;99.90;;;;;;4771620;30;20515;-78
2023/12/01 12:19:20;;;;;;;20.38;18.27;;;3.60;99.90;;;;;;4810448;29;20050;-82
2023/12/01 12:22:21;;;;;;;21.38;19.05;;;3.70;99.90;;;;;;4790586;29;20175;-79
2023/12/01 12:24:50;;;;;;;19.55;17.52;;;3.80;99.90;;;;;;4784322;29;20051;-79
2023/12/01 12:28:22;;;;;;;21.30;19.05;;;3.80;99.90;;;;;;4865569;29;20048;-79
2023/12/01 12:31:30;;;;;;;19.42;17.48;;;3.50;99.90;;;;;;4830520;29;20050;-79
2023/12/01 12:34:44;;;;;;;20.55;18.40;;;3.30;99.90;;;;;;4815097;29;20092;-78
2023/12/01 12:37:36;;;;;;;20.08;17.98;;;2.90;99.90;;;;;;4838203;29;20104;-79
2023/12/01 12:40:30;;;;;;;20.15;18.05;;;2.60;99.90;;;;;;4823739;29;20121;-79
2023/12/01 12:43:08;;;;;;;20.30;18.20;;;2.20;99.90;;;;;;4824527;29;20510;-79
2023/12/01 12:46:08;;;;;;;20.75;18.55;;;1.90;99.90;;;;;;4824665;29;20042;-79
2023/12/01 12:49:48;;;;;;;21.40;19.20;;;1.80;99.90;;;;;;4831436;29;20129;-79
2023/12/01 12:53:16;;;;;;;19.70;17.70;;;1.50;99.90;;;;;;4839893;29;20569;-79
2023/12/01 12:56:34;;;;;;;19.25;17.35;;;1.30;99.90;;;;;;4830256;29;20129;-79
2023/12/01 12:59:53;;;;;;;12.50;6.85;;;1.10;99.90;;;;;;4841514;29;20481;-79
2023/12/01 13:03:14;;;;;;;14.63;7.28;;;0.80;99.90;;;;;;4845337;29;20058;-79
2023/12/01 13:10:32;;;;;;;;;;;;;;;;;;;;;
2023/12/01 14:02:14;;;;;;;22.73;20.42;;;0.00;99.90;;;;;;5414650;23;20524;-78
2023/12/01 14:25:40;;;;;;;;;;;;;;;;;;;;;
2023/12/01 14:32:15;;;;;;;;;;;;;;;;;;;;;
2023/12/01 14:35:47;;;;;;;;;;;;;;;;;;;;;
2023/12/01 14:40:04;;;;;;;;;;;;;;;;;;;;;
2023/12/01 14:46:35;;;;;;;14.38;6.57;;;-0.60;99.90;;;;;;4717852;30;20600;-81
2023/12/01 14:50:20;;;;;;;11.68;6.47;;;-0.60;99.90;;;;;;4812630;29;20075;-81
2023/12/01 14:53:05;;;;;;;11.18;6.55;;;-0.60;99.90;;;;;;4793940;29;20548;-80
2023/12/01 14:55:38;;;;;;;25.63;22.98;;;-0.60;99.90;;;;;;4858645;29;20428;-81
2023/12/01 15:01:55;;;;;;;9.60;6.00;;;-0.60;99.90;;;;;;4827038;29;20049;-78
2023/12/01 15:04:21;;;;;;;;;;;-0.50;99.90;;;;;;4848157;29;20048;-77
2023/12/01 15:06:54;;;;;;;15.75;8.68;;;-0.60;99.90;;;;;;4872455;29;20437;-80
2023/12/01 15:10:08;;;;;;;12.63;7.28;;;-0.60;99.90;;;;;;4867596;29;20057;-79
2023/12/01 15:13:28;;;;;;;13.77;8.80;;;-0.70;99.90;;;;;;4831533;29;20054;-79
2023/12/01 15:16:26;;;;;;;;;;;;;;;;;;;;;
2023/12/01 15:22:30;;;;;;;15.48;8.40;;;-0.90;99.90;;;;;;4864297;29;20137;-79
2023/12/01 15:25:07;;;;;;;18.42;9.02;;;-1.00;99.90;;;;;;4850089;29;20053;-78
2023/12/01 15:27:56;;;;;;;14.55;8.30;;;-1.00;99.90;;;;;;4845117;29;20049;-78
2023/12/01 15:43:42;;;;;;;14.55;7.40;;;-1.30;99.90;;;;;;4830045;29;20042;-78
2023/12/01 15:46:50;;;;;;;15.27;7.22;;;-1.50;99.90;;;;;;4832171;29;20046;-78
2023/12/01 15:49:51;;;;;;;14.77;7.32;;;-1.40;99.90;;;;;;4837098;29;20060;-78
2023/12/01 15:52:56;;;;;;;;;;;;;;;;;;;;;
2023/12/01 15:56:05;;;;;;;;;;;;;;;;;;;;;
2023/12/01 15:59:05;;;;;;;16.00;7.82;;;-1.70;99.90;;;;;;4863006;29;20557;-77
2023/12/01 16:01:34;;;;;;;17.23;8.82;;;-1.80;99.90;;;;;;4863003;29;20101;-77
2023/12/01 16:04:00;;;;;;;15.05;8.65;;;-1.80;99.90;;;;;;4844779;29;20049;-76
2023/12/01 16:06:26;;;;;;;18.52;8.70;;;-1.90;99.90;;;;;;4861453;29;20056;-77
2023/12/01 16:08:54;;;;;;;29.27;26.05;;;-1.90;99.90;;;;;;4846406;29;20037;-77
2023/12/01 16:11:23;;;;;;;17.48;9.48;;;-1.90;99.90;;;;;;4844551;29;20052;-77
2023/12/01 16:13:52;;;;;;;15.88;8.25;;;-1.90;99.90;;;;;;4843572;29;20049;-77
2023/12/01 16:16:18;;;;;;;17.25;9.73;;;-1.90;99.90;;;;;;4862258;29;20041;-77
2023/12/01 16:18:50;;;;;;;17.33;8.60;;;-1.80;99.90;;;;;;4848027;29;20597;-77